Time;durP1;ratioP1;P1;durP2;ratioP2;P2;SDS_P1;SDS_P2;PMS_P1;PMS_P2;Temp;Humidity;BMP_temperature;BMP_pressure;BME280_temperature;BME280_humidity;BME280_pressure;Samples;Min_cycle;Max_cycle;Signal;HPM_P1;HPM_P2
2022/10/14 00:01:04;;;;;;;26.55;17.92;;;;;;;10.40;72.83;101499.26;1755202;81;21013;-62
2022/10/14 00:03:33;;;;;;;25.45;17.12;;;;;;;10.39;72.69;101500.70;1747732;81;21014;-62
2022/10/14 00:06:09;;;;;;;26.45;16.07;;;;;;;10.39;72.60;101496.27;1712953;82;22002;-62
2022/10/14 00:08:38;;;;;;;27.40;18.25;;;;;;;10.43;72.33;101494.29;1699075;84;21474;-62
2022/10/14 00:11:11;;;;;;;25.32;17.57;;;;;;;10.44;72.33;101493.36;1693873;84;21114;-62
2022/10/14 00:13:38;;;;;;;25.45;17.40;;;;;;;10.42;72.56;101488.64;1701611;84;21028;-62
2022/10/14 00:16:06;;;;;;;22.50;17.20;;;;;;;10.39;72.68;101487.54;1698296;83;21075;-62
2022/10/14 00:18:32;;;;;;;24.02;16.52;;;;;;;10.37;72.84;101490.71;1700863;84;21834;-62
2022/10/14 00:21:00;;;;;;;25.15;17.05;;;;;;;10.37;72.95;101486.31;1699369;84;21553;-62
2022/10/14 00:23:28;;;;;;;26.37;16.35;;;;;;;10.45;72.91;101491.56;1698355;84;21062;-62
2022/10/14 00:25:55;;;;;;;24.25;16.95;;;;;;;10.50;72.90;101487.70;1693525;84;21115;-62
2022/10/14 00:28:23;;;;;;;27.52;17.67;;;;;;;10.55;72.92;101484.79;1678055;85;21075;-62
2022/10/14 00:30:58;;;;;;;23.27;17.07;;;;;;;10.53;73.02;101487.99;1679963;84;21263;-62
2022/10/14 00:33:26;;;;;;;25.90;17.67;;;;;;;10.52;72.92;101487.61;1683943;84;21612;-62
2022/10/14 00:36:00;;;;;;;27.75;17.17;;;;;;;10.47;72.75;101485.25;1706052;84;21083;-62
2022/10/14 00:38:29;;;;;;;29.25;16.80;;;;;;;10.46;72.76;101487.53;1690170;83;21051;-62
2022/10/14 00:40:56;;;;;;;21.70;15.32;;;;;;;10.50;72.58;101486.86;1692581;84;21474;-62
2022/10/14 00:43:24;;;;;;;22.15;16.32;;;;;;;10.50;72.71;101478.48;1678106;85;21344;-62
2022/10/14 00:45:51;;;;;;;23.02;16.12;;;;;;;10.51;72.92;101476.72;1704847;84;21027;-62
2022/10/14 00:48:20;;;;;;;25.82;16.02;;;;;;;10.49;73.09;101474.19;1701335;84;21083;-63
2022/10/14 00:50:50;;;;;;;26.35;16.48;;;;;;;10.45;73.10;101471.35;1687625;84;21062;-62
2022/10/14 00:53:17;;;;;;;24.23;17.07;;;;;;;10.44;73.04;101480.20;1678055;85;21111;-62
2022/10/14 00:55:43;;;;;;;24.98;17.37;;;;;;;10.41;72.69;101475.13;1683958;84;21256;-62
2022/10/14 00:58:10;;;;;;;26.20;17.30;;;;;;;10.36;72.63;101470.63;1678498;84;21052;-62
2022/10/14 01:00:38;;;;;;;25.52;16.95;;;;;;;10.33;72.90;101467.70;1654312;84;21011;-62
2022/10/14 01:03:09;;;;;;;22.70;15.45;;;;;;;10.32;73.17;101464.70;1678412;84;21063;-62
2022/10/14 01:05:53;;;;;;;21.65;15.50;;;;;;;10.35;73.30;101466.28;1680692;84;21115;-62
2022/10/14 01:08:26;;;;;;;24.45;16.80;;;;;;;10.41;73.19;101464.60;1691590;82;21818;-62
2022/10/14 01:11:21;;;;;;;29.85;17.17;;;;;;;10.46;73.11;101463.84;1693445;82;22201;-62
2022/10/14 01:14:05;;;;;;;27.58;17.98;;;;;;;10.47;73.07;101461.56;1691367;82;21034;-62
2022/10/14 01:16:56;;;;;;;27.48;17.00;;;;;;;10.47;73.04;101462.88;1710445;82;21027;-63
2022/10/14 01:19:31;;;;;;;29.35;16.77;;;;;;;10.40;73.11;101453.69;1707624;82;21081;-62
2022/10/14 01:22:12;;;;;;;24.93;16.53;;;;;;;10.34;73.20;101459.32;1705399;83;21161;-62
2022/10/14 01:25:03;;;;;;;23.02;16.05;;;;;;;10.33;73.17;101455.02;1710230;82;21657;-62
2022/10/14 01:27:41;;;;;;;26.62;17.27;;;;;;;10.34;72.98;101452.75;1691372;84;21050;-62
2022/10/14 01:30:16;;;;;;;29.02;18.00;;;;;;;10.35;73.12;101455.28;1694698;82;21066;-62
2022/10/14 01:33:05;;;;;;;24.70;16.90;;;;;;;10.31;73.19;101455.56;1690932;84;21037;-65
2022/10/14 01:36:02;;;;;;;22.90;17.02;;;;;;;10.25;73.16;101455.45;1699486;82;21269;-62
2022/10/14 01:38:36;;;;;;;24.70;16.67;;;;;;;10.17;73.23;101455.94;1692217;82;21049;-62
2022/10/14 01:41:09;;;;;;;26.85;18.02;;;;;;;10.16;73.25;101452.92;1667861;83;21108;-62
2022/10/14 01:43:37;;;;;;;28.50;18.92;;;;;;;10.18;73.14;101454.14;1691269;84;21066;-62
2022/10/14 01:46:05;;;;;;;27.17;18.73;;;;;;;10.18;73.17;101456.77;1684344;83;21058;-62
2022/10/14 01:48:35;;;;;;;33.50;19.00;;;;;;;10.15;73.43;101456.95;1711184;82;21867;-62
2022/10/14 01:51:06;;;;;;;26.87;18.60;;;;;;;10.08;73.56;101451.22;1699184;82;21019;-62
2022/10/14 01:53:39;;;;;;;32.50;20.02;;;;;;;10.07;73.66;101450.00;1691254;84;21518;-62
2022/10/14 01:56:06;;;;;;;28.20;19.17;;;;;;;10.10;73.62;101446.71;1692574;82;21563;-62
2022/10/14 01:58:33;;;;;;;45.73;27.00;;;;;;;10.14;73.71;101455.28;1691010;84;21121;-62
2022/10/14 02:01:05;;;;;;;37.63;27.58;;;;;;;10.15;73.90;101450.37;1692613;82;21142;-62
2022/10/14 02:03:44;;;;;;;34.50;23.85;;;;;;;10.16;74.00;101447.66;1692717;82;21066;-62
2022/10/14 02:06:22;;;;;;;33.25;19.73;;;;;;;10.14;73.98;101450.86;1694169;82;21618;-62
2022/10/14 02:09:13;;;;;;;24.87;16.67;;;;;;;10.11;73.90;101444.95;1684375;82;21091;-62
2022/10/14 02:11:54;;;;;;;25.50;17.30;;;;;;;10.15;73.85;101446.44;1690402;82;21185;-62
2022/10/14 02:14:45;;;;;;;25.60;18.73;;;;;;;10.20;73.96;101449.63;1704357;81;21820;-62
2022/10/14 02:17:29;;;;;;;28.65;19.42;;;;;;;10.19;73.93;101443.53;1731000;82;21102;-62
2022/10/14 02:20:21;;;;;;;29.42;19.17;;;;;;;10.16;74.07;101446.83;1722286;82;21047;-62
2022/10/14 02:22:53;;;;;;;29.18;21.07;;;;;;;10.10;74.15;101443.24;1741714;82;21034;-62
2022/10/14 02:25:35;;;;;;;24.87;17.60;;;;;;;10.04;74.05;101443.16;1713045;82;21088;-62
2022/10/14 02:28:03;;;;;;;27.90;19.23;;;;;;;10.01;73.98;101436.77;1715139;82;21004;-62
2022/10/14 02:30:32;;;;;;;28.00;18.45;;;;;;;10.02;73.80;101442.41;1714824;82;21024;-62
2022/10/14 02:32:59;;;;;;;26.87;19.00;;;;;;;9.99;73.71;101439.97;1712884;83;21035;-62
2022/10/14 02:35:28;;;;;;;23.65;18.48;;;;;;;9.95;73.80;101446.33;1722145;82;21055;-63
2022/10/14 02:37:54;;;;;;;28.25;19.00;;;;;;;9.89;73.79;101442.78;1724325;81;21028;-62
2022/10/14 02:40:34;;;;;;;24.95;18.77;;;;;;;9.83;73.78;101445.28;1729773;82;21255;-62
2022/10/14 02:43:02;;;;;;;33.45;18.27;;;;;;;9.75;73.73;101444.45;1713558;82;21028;-62
2022/10/14 02:45:28;;;;;;;27.32;18.23;;;;;;;9.77;73.68;101445.67;1725002;82;21509;-62
2022/10/14 02:47:55;;;;;;;29.37;18.45;;;;;;;9.76;73.67;101443.97;1717065;82;21497;-62
2022/10/14 02:50:22;;;;;;;31.25;18.82;;;;;;;9.70;73.61;101445.64;1731773;82;21043;-62
2022/10/14 02:52:50;;;;;;;29.30;19.07;;;;;;;9.66;73.88;101452.86;1742234;81;22618;-62
2022/10/14 02:55:16;;;;;;;26.25;18.65;;;;;;;9.63;74.12;101449.09;1717546;82;21031;-62
2022/10/14 02:57:43;;;;;;;31.55;19.12;;;;;;;9.63;74.28;101447.34;1712853;83;21548;-62
2022/10/14 03:00:13;;;;;;;28.73;19.07;;;;;;;9.65;74.24;101449.40;1715487;82;21628;-62
2022/10/14 03:02:41;;;;;;;26.12;18.77;;;;;;;9.68;74.23;101453.61;1713479;82;21062;-62
2022/10/14 03:05:08;;;;;;;28.17;18.00;;;;;;;9.70;74.25;101449.58;1719297;82;21303;-62
2022/10/14 03:07:36;;;;;;;26.55;17.85;;;;;;;9.67;74.26;101450.63;1750344;81;21003;-62
2022/10/14 03:10:05;;;;;;;25.25;18.35;;;;;;;9.61;74.26;101451.81;1754480;81;21105;-62
2022/10/14 03:12:33;;;;;;;25.05;17.70;;;;;;;9.58;74.21;101455.96;1713427;82;21607;-62
2022/10/14 03:15:00;;;;;;;27.55;18.27;;;;;;;9.53;74.09;101445.33;1734281;81;21533;-62
2022/10/14 03:17:28;;;;;;;27.02;17.52;;;;;;;9.55;74.04;101448.25;1734946;81;21154;-62
2022/10/14 03:19:58;;;;;;;28.85;18.77;;;;;;;9.58;74.08;101455.09;1741846;81;21004;-62
2022/10/14 03:22:25;;;;;;;31.85;20.32;;;;;;;9.53;74.18;101449.27;1727112;81;21067;-62
2022/10/14 03:24:52;;;;;;;24.60;17.92;;;;;;;9.48;74.22;101442.52;1729485;81;21050;-62
2022/10/14 03:27:20;;;;;;;25.72;16.93;;;;;;;9.42;74.28;101444.17;1728106;81;20995;-62
2022/10/14 03:29:49;;;;;;;25.20;17.45;;;;;;;9.38;74.37;101447.92;1755589;81;22267;-63
2022/10/14 03:32:18;;;;;;;28.25;17.75;;;;;;;9.40;74.33;101451.78;1728520;81;21043;-62
2022/10/14 03:34:53;;;;;;;25.88;18.17;;;;;;;9.43;74.30;101448.95;1725262;81;21023;-62
2022/10/14 03:37:21;;;;;;;27.02;17.30;;;;;;;9.39;74.25;101445.66;1738381;81;21118;-62
2022/10/14 03:39:48;;;;;;;24.43;16.15;;;;;;;9.35;74.32;101446.78;1747371;81;21093;-62
2022/10/14 03:42:16;;;;;;;24.37;17.35;;;;;;;9.28;74.37;101450.23;1751089;81;21255;-62
2022/10/14 03:44:45;;;;;;;24.72;16.93;;;;;;;9.21;74.31;101450.22;1748973;81;21018;-62
2022/10/14 03:47:13;;;;;;;24.43;15.60;;;;;;;9.19;74.15;101446.80;1753795;81;21052;-62
2022/10/14 03:49:40;;;;;;;23.77;16.30;;;;;;;9.19;73.97;101446.80;1745179;81;21039;-62
2022/10/14 03:52:08;;;;;;;25.57;16.82;;;;;;;9.18;73.87;101446.45;1751556;80;21063;-62
2022/10/14 03:54:36;;;;;;;24.63;16.37;;;;;;;9.19;74.02;101445.97;1751394;81;21244;-62
2022/10/14 03:57:02;;;;;;;21.17;16.37;;;;;;;9.17;74.17;101446.53;1753025;81;21559;-62
2022/10/14 03:59:31;;;;;;;26.77;17.48;;;;;;;9.14;74.30;101446.70;1750644;81;21055;-62
2022/10/14 04:01:58;;;;;;;28.20;15.85;;;;;;;9.09;74.45;101447.83;1746613;81;21011;-62
2022/10/14 04:04:25;;;;;;;24.30;15.23;;;;;;;9.09;74.42;101446.95;1755042;81;21888;-62
2022/10/14 04:06:52;;;;;;;27.90;16.90;;;;;;;9.14;74.21;101443.59;1751584;81;21143;-62
2022/10/14 04:09:19;;;;;;;23.70;16.17;;;;;;;9.16;74.20;101447.45;1754696;80;20987;-62
2022/10/14 04:11:46;;;;;;;28.87;17.07;;;;;;;9.10;74.09;101444.25;1752291;81;21026;-62
2022/10/14 04:14:19;;;;;;;26.90;16.57;;;;;;;9.05;74.30;101444.14;1753462;81;21556;-62
2022/10/14 04:16:47;;;;;;;24.87;15.98;;;;;;;9.00;74.36;101448.33;1752180;81;21086;-62
2022/10/14 04:19:15;;;;;;;21.48;15.85;;;;;;;8.96;74.40;101446.83;1745293;81;21273;-62
2022/10/14 04:21:41;;;;;;;19.23;16.15;;;;;;;9.00;74.34;101449.64;1739453;81;21051;-62
2022/10/14 04:24:09;;;;;;;23.67;16.23;;;;;;;9.04;74.26;101451.63;1746169;81;21093;-62
2022/10/14 04:26:42;;;;;;;25.70;18.25;;;;;;;9.02;74.44;101454.81;1742816;81;21666;-61
2022/10/14 04:29:10;;;;;;;23.40;16.65;;;;;;;9.01;74.77;101447.41;1744917;81;21022;-62
2022/10/14 04:31:40;;;;;;;24.67;15.95;;;;;;;9.02;74.96;101450.39;1748741;81;21074;-61
2022/10/14 04:34:07;;;;;;;21.52;15.55;;;;;;;9.06;74.90;101447.13;1752322;81;21090;-62
2022/10/14 04:36:35;;;;;;;25.02;16.20;;;;;;;9.12;74.79;101450.73;1751751;81;21596;-62
2022/10/14 04:39:02;;;;;;;24.27;17.30;;;;;;;9.18;74.78;101452.14;1751194;81;21106;-62
2022/10/14 04:41:29;;;;;;;24.90;16.25;;;;;;;9.21;74.90;101452.84;1755015;81;21046;-61
2022/10/14 04:43:57;;;;;;;25.08;16.87;;;;;;;9.25;75.14;101452.20;1751611;81;21198;-62
2022/10/14 04:46:25;;;;;;;24.57;15.95;;;;;;;9.28;75.42;101448.09;1745899;81;21046;-62
2022/10/14 04:48:53;;;;;;;24.10;15.72;;;;;;;9.32;75.41;101444.33;1749712;81;21096;-62
2022/10/14 04:51:20;;;;;;;24.57;15.50;;;;;;;9.39;75.21;101442.20;1751723;81;21094;-62
2022/10/14 04:53:49;;;;;;;21.30;15.55;;;;;;;9.43;75.08;101441.07;1749180;81;21038;-61
2022/10/14 04:56:18;;;;;;;23.42;16.40;;;;;;;9.43;75.19;101442.38;1730319;81;21078;-61
2022/10/14 04:58:47;;;;;;;22.13;14.73;;;;;;;9.41;75.35;101447.72;1743291;81;21558;-61
2022/10/14 05:01:13;;;;;;;21.37;15.05;;;;;;;9.40;75.47;101446.05;1754088;81;21122;-61
2022/10/14 05:03:41;;;;;;;21.60;14.50;;;;;;;9.40;75.52;101449.99;1752776;81;21042;-62
2022/10/14 05:06:09;;;;;;;16.95;13.68;;;;;;;9.47;75.53;101447.37;1747761;81;21129;-62
2022/10/14 05:08:37;;;;;;;26.40;15.20;;;;;;;9.53;75.39;101452.77;1738700;81;21145;-62
2022/10/14 05:11:07;;;;;;;25.37;14.55;;;;;;;9.56;75.34;101449.09;1733637;82;21071;-62
2022/10/14 05:13:37;;;;;;;20.40;15.80;;;;;;;9.57;75.46;101452.11;1736737;82;21059;-61
2022/10/14 05:16:07;;;;;;;23.92;15.75;;;;;;;9.54;75.60;101457.06;1730016;82;21059;-62
2022/10/14 05:18:35;;;;;;;22.02;15.38;;;;;;;9.57;75.69;101459.52;1733891;82;21031;-61
2022/10/14 05:21:04;;;;;;;23.75;16.05;;;;;;;9.62;75.54;101452.68;1739133;82;21258;-62
2022/10/14 05:23:33;;;;;;;24.00;16.95;;;;;;;9.67;75.56;101454.09;1715142;82;21023;-62
2022/10/14 05:26:00;;;;;;;24.35;17.52;;;;;;;9.70;75.79;101458.78;1738566;81;21126;-62
2022/10/14 05:28:26;;;;;;;25.17;17.75;;;;;;;9.71;76.05;101461.80;1740566;81;21046;-62
2022/10/14 05:30:54;;;;;;;22.27;15.65;;;;;;;9.76;76.10;101461.05;1740456;81;21016;-62
2022/10/14 05:33:21;;;;;;;24.30;17.00;;;;;;;9.84;75.93;101468.86;1741874;82;21163;-62
2022/10/14 05:35:48;;;;;;;24.30;16.17;;;;;;;9.86;75.79;101469.61;1735780;82;21065;-62
2022/10/14 05:38:16;;;;;;;23.85;17.82;;;;;;;9.88;75.93;101472.62;1741659;82;22232;-62
2022/10/14 05:40:52;;;;;;;22.48;17.10;;;;;;;9.85;75.91;101475.81;1736942;82;21051;-62
2022/10/14 05:43:19;;;;;;;24.95;17.10;;;;;;;9.87;76.10;101474.41;1739666;82;21043;-62
2022/10/14 05:45:46;;;;;;;24.95;17.40;;;;;;;9.96;76.05;101473.84;1738258;81;21134;-62
2022/10/14 05:48:13;;;;;;;24.43;18.15;;;;;;;10.04;75.99;101477.34;1739166;80;21043;-62
2022/10/14 05:50:41;;;;;;;25.95;18.23;;;;;;;10.12;76.11;101467.66;1737614;81;21552;-62
2022/10/14 05:53:10;;;;;;;30.37;19.15;;;;;;;10.16;76.10;101477.91;1728372;82;21108;-62
2022/10/14 05:55:40;;;;;;;31.87;20.68;;;;;;;10.16;76.16;101477.91;1737724;82;21088;-62
2022/10/14 05:58:07;;;;;;;23.55;18.40;;;;;;;10.20;76.30;101475.93;1733867;81;21545;-62
2022/10/14 06:00:37;;;;;;;26.30;18.15;;;;;;;10.31;76.14;101478.76;1735954;81;21546;-62
2022/10/14 06:03:05;;;;;;;27.52;19.23;;;;;;;10.41;76.05;101477.76;1738262;82;21056;-62
2022/10/14 06:05:36;;;;;;;30.55;20.05;;;;;;;10.49;75.96;101482.08;1733198;81;21062;-61
2022/10/14 06:08:05;;;;;;;32.58;21.00;;;;;;;10.53;75.95;101484.05;1733665;81;21090;-60
2022/10/14 06:10:35;;;;;;;27.15;19.57;;;;;;;10.56;75.89;101488.64;1734652;81;20995;-62
2022/10/14 06:13:02;;;;;;;27.25;17.40;;;;;;;10.57;75.75;101490.34;1750199;81;21099;-62
2022/10/14 06:15:29;;;;;;;27.98;16.93;;;;;;;10.63;75.58;101493.53;1751797;81;21596;-62
2022/10/14 06:17:55;;;;;;;28.87;16.50;;;;;;;10.77;74.99;101493.50;1751392;81;21022;-62
2022/10/14 06:20:22;;;;;;;19.95;14.95;;;;;;;10.89;74.12;101499.32;1750978;81;21090;-62
2022/10/14 06:22:49;;;;;;;24.77;15.68;;;;;;;10.96;73.62;101502.38;1751282;81;21240;-62
2022/10/14 06:25:16;;;;;;;24.75;14.90;;;;;;;11.00;73.20;101505.20;1755468;81;21070;-62
2022/10/14 06:27:42;;;;;;;24.72;14.73;;;;;;;11.02;72.97;101500.68;1755053;81;21073;-62
2022/10/14 06:30:11;;;;;;;20.55;14.90;;;;;;;11.09;72.36;101502.45;1754200;81;21038;-62
2022/10/14 06:32:39;;;;;;;27.52;15.60;;;;;;;11.17;71.66;101497.53;1754685;81;21019;-63
2022/10/14 06:35:07;;;;;;;27.42;15.18;;;;;;;11.21;71.44;101500.33;1753211;81;21255;-62
2022/10/14 06:37:35;;;;;;;21.35;15.48;;;;;;;11.22;71.23;101503.34;1753519;81;21075;-62
2022/10/14 06:40:02;;;;;;;26.00;15.05;;;;;;;11.22;71.14;101504.66;1755246;81;21027;-63
2022/10/14 06:42:33;;;;;;;23.42;15.50;;;;;;;11.25;71.07;101499.69;1748999;80;21107;-62
2022/10/14 06:45:00;;;;;;;23.32;14.60;;;;;;;11.28;70.77;101499.45;1755562;81;21882;-62
2022/10/14 06:47:27;;;;;;;22.30;15.32;;;;;;;11.37;70.48;101504.63;1750049;81;21165;-62
2022/10/14 06:49:54;;;;;;;23.18;15.72;;;;;;;11.43;70.08;101499.80;1752142;81;21038;-63
2022/10/14 06:52:20;;;;;;;26.07;15.40;;;;;;;11.47;70.02;101509.66;1753457;81;21531;-62
2022/10/14 06:54:47;;;;;;;20.27;13.98;;;;;;;11.51;69.85;101500.59;1755749;81;21095;-62
2022/10/14 06:57:14;;;;;;;20.25;13.48;;;;;;;11.55;69.86;101506.05;1752779;81;21086;-62
2022/10/14 06:59:40;;;;;;;22.25;12.03;;;;;;;11.61;69.72;101502.15;1755343;80;21252;-62
2022/10/14 07:02:09;;;;;;;20.70;13.10;;;;;;;11.67;69.45;101509.66;1751643;81;21046;-63
2022/10/14 07:04:35;;;;;;;22.45;13.05;;;;;;;11.74;69.21;101508.77;1740475;81;21074;-62
2022/10/14 07:07:02;;;;;;;20.27;12.18;;;;;;;11.76;69.35;101508.19;1751478;81;21592;-62
2022/10/14 07:09:29;;;;;;;18.80;12.60;;;;;;;11.82;69.55;101499.88;1750963;81;21086;-63
2022/10/14 07:11:56;;;;;;;17.85;12.10;;;;;;;11.89;69.30;101498.51;1748956;81;21248;-62
2022/10/14 07:14:23;;;;;;;20.05;10.88;;;;;;;11.96;68.83;101501.13;1755562;81;21031;-62
2022/10/14 07:16:52;;;;;;;19.75;11.60;;;;;;;12.05;68.63;101497.87;1752637;81;21322;-62
2022/10/14 07:19:18;;;;;;;19.15;12.58;;;;;;;12.13;68.50;101493.85;1753997;81;21082;-62
2022/10/14 07:21:45;;;;;;;18.12;12.07;;;;;;;12.19;68.25;101500.87;1757047;81;21080;-63
2022/10/14 07:24:12;;;;;;;18.27;11.68;;;;;;;12.23;67.82;101494.91;1759201;80;21144;-62
2022/10/14 07:26:39;;;;;;;18.65;12.30;;;;;;;12.26;67.65;101490.73;1753580;81;21532;-62
2022/10/14 07:29:06;;;;;;;16.27;11.25;;;;;;;12.29;67.44;101491.84;1751515;81;21133;-62
2022/10/14 07:31:33;;;;;;;24.43;12.35;;;;;;;12.34;67.13;101489.73;1751745;81;21579;-63
2022/10/14 07:34:05;;;;;;;20.25;11.93;;;;;;;12.42;67.13;101485.22;1746568;81;21093;-62
2022/10/14 07:36:29;;;;;;;14.98;10.90;;;;;;;12.52;66.89;101493.34;1753181;81;21154;-63
2022/10/14 07:38:55;;;;;;;16.65;10.60;;;;;;;12.56;66.74;101490.38;1750988;81;20995;-63
2022/10/14 07:41:23;;;;;;;20.20;11.35;;;;;;;12.57;66.80;101495.17;1739971;80;21042;-63
2022/10/14 07:43:57;;;;;;;19.15;10.63;;;;;;;12.61;66.81;101488.73;1739623;81;21030;-63
2022/10/14 07:46:28;;;;;;;22.90;10.38;;;;;;;12.67;66.80;101491.41;1739213;81;21074;-63
2022/10/14 07:48:56;;;;;;;12.80;9.53;;;;;;;12.73;66.40;101487.02;1747898;81;21016;-63
2022/10/14 07:51:22;;;;;;;18.07;11.43;;;;;;;12.83;66.37;101485.41;1751568;81;21078;-63
2022/10/14 07:53:49;;;;;;;13.93;9.43;;;;;;;12.92;66.33;101485.21;1755257;81;21038;-63
2022/10/14 07:56:16;;;;;;;16.62;10.40;;;;;;;12.97;66.24;101484.39;1751940;81;21105;-63
2022/10/14 07:58:42;;;;;;;17.32;10.58;;;;;;;13.01;66.32;101489.36;1751733;81;21058;-63
2022/10/14 08:01:08;;;;;;;16.87;11.00;;;;;;;13.07;66.35;101488.05;1752008;81;21994;-63
2022/10/14 08:03:35;;;;;;;15.53;9.90;;;;;;;13.12;66.04;101488.56;1752346;80;21034;-63
2022/10/14 08:06:03;;;;;;;16.55;9.28;;;;;;;13.20;66.01;101490.65;1739811;81;21122;-63
2022/10/14 08:08:30;;;;;;;17.50;10.55;;;;;;;13.34;65.77;101485.20;1752389;81;21080;-63
2022/10/14 08:11:12;;;;;;;14.33;9.68;;;;;;;13.46;65.58;101489.22;1755846;81;21074;-63
2022/10/14 08:13:39;;;;;;;14.78;10.80;;;;;;;13.50;65.55;101487.56;1742350;81;21113;-63
2022/10/14 08:16:27;;;;;;;15.30;10.38;;;;;;;13.58;65.47;101480.36;1754165;81;21490;-64
2022/10/14 08:19:00;;;;;;;19.27;11.20;;;;;;;13.67;64.78;101474.88;1751751;81;21044;-63
2022/10/14 08:21:29;;;;;;;19.95;9.60;;;;;;;13.69;64.44;101474.28;1751245;81;21066;-64
2022/10/14 08:23:55;;;;;;;13.38;8.28;;;;;;;13.70;64.29;101482.55;1749512;81;21035;-64
2022/10/14 08:26:35;;;;;;;13.85;8.68;;;;;;;13.73;64.04;101481.00;1755545;81;21193;-64
2022/10/14 08:29:07;;;;;;;13.03;8.88;;;;;;;13.82;64.07;101477.67;1726780;81;21090;-64
2022/10/14 08:31:33;;;;;;;14.00;9.10;;;;;;;13.90;63.96;101483.23;1725925;81;21035;-64
2022/10/14 08:34:00;;;;;;;13.32;8.03;;;;;;;13.96;63.55;101477.09;1746410;81;21044;-64
2022/10/14 08:36:26;;;;;;;13.28;7.60;;;;;;;13.96;63.18;101481.06;1719526;83;21077;-64
2022/10/14 08:38:54;;;;;;;15.70;6.78;;;;;;;13.99;62.86;101478.19;1715341;82;21111;-64
2022/10/14 08:41:41;;;;;;;11.40;6.35;;;;;;;14.04;62.51;101474.22;1716301;82;21050;-64
2022/10/14 08:44:21;;;;;;;10.75;7.20;;;;;;;14.08;61.76;101466.88;1714630;82;21049;-64
2022/10/14 08:46:59;;;;;;;18.07;6.78;;;;;;;14.09;60.97;101470.73;1717420;83;21846;-64
2022/10/14 08:49:49;;;;;;;15.38;6.10;;;;;;;14.06;60.18;101470.97;1683901;84;21043;-64
2022/10/14 08:52:20;;;;;;;12.13;7.47;;;;;;;14.02;60.09;101469.53;1684024;84;21132;-64
2022/10/14 08:55:01;;;;;;;13.03;7.33;;;;;;;14.01;59.69;101467.00;1697766;84;21077;-64
2022/10/14 08:57:34;;;;;;;17.55;6.37;;;;;;;14.01;59.64;101473.62;1693680;84;21066;-64
2022/10/14 09:00:01;;;;;;;9.75;6.15;;;;;;;14.00;59.85;101465.30;1695112;84;21073;-64
2022/10/14 09:02:43;;;;;;;15.10;7.03;;;;;;;14.03;59.80;101465.07;1695598;84;21051;-64
2022/10/14 09:05:15;;;;;;;9.78;5.53;;;;;;;14.18;59.69;101459.06;1695692;84;21166;-65
2022/10/14 09:07:43;;;;;;;11.25;5.90;;;;;;;14.29;58.87;101465.70;1714684;82;21045;-64
2022/10/14 09:10:21;;;;;;;11.97;6.20;;;;;;;14.35;58.76;101461.71;1702880;83;21488;-64
2022/10/14 09:12:48;;;;;;;12.37;6.20;;;;;;;14.43;58.53;101460.13;1696162;82;21098;-64
2022/10/14 09:15:23;;;;;;;12.55;6.33;;;;;;;14.51;57.84;101456.89;1702237;84;21109;-64
2022/10/14 09:18:06;;;;;;;;;;;;;;;14.58;57.86;101459.41;1698152;82;21805;-64
2022/10/14 09:20:33;;;;;;;10.15;5.10;;;;;;;14.64;57.23;101462.92;1634294;84;20501;-65
2022/10/14 09:24:18;;;;;;;13.58;5.28;;;;;;;14.65;56.80;101455.32;1784904;79;23421;-49
2022/10/14 09:26:54;;;;;;;9.23;4.65;;;;;;;14.82;55.45;101455.77;1753021;81;21106;-49
2022/10/14 09:29:29;;;;;;;11.18;4.72;;;;;;;14.86;55.23;101454.08;1749653;81;21189;-49
2022/10/14 09:31:58;;;;;;;8.33;4.05;;;;;;;14.90;55.11;101454.67;1755698;81;21050;-50
2022/10/14 09:34:41;;;;;;;8.48;3.83;;;;;;;14.93;54.88;101455.75;1711352;81;21121;-49
2022/10/14 09:37:35;;;;;;;7.80;3.95;;;;;;;14.99;53.75;101447.77;1710792;83;21065;-48
2022/10/14 09:40:20;;;;;;;9.35;4.03;;;;;;;15.01;53.85;101453.78;1708800;83;21596;-49
2022/10/14 09:42:58;;;;;;;14.15;3.62;;;;;;;15.05;53.32;101449.44;1694446;83;21115;-49
2022/10/14 09:45:27;;;;;;;7.85;3.27;;;;;;;15.09;52.90;101446.54;1715481;83;21471;-48
2022/10/14 09:48:06;;;;;;;10.03;4.30;;;;;;;15.11;51.94;101442.78;1716345;83;21075;-49
2022/10/14 09:50:39;;;;;;;7.12;3.77;;;;;;;15.11;52.05;101440.13;1713497;83;21086;-48
2022/10/14 09:53:28;;;;;;;8.50;4.10;;;;;;;15.12;51.93;101443.15;1710299;83;21086;-49
2022/10/14 09:56:04;;;;;;;10.93;4.05;;;;;;;15.13;51.87;101434.70;1709495;83;21210;-49
2022/10/14 09:58:52;;;;;;;8.20;3.90;;;;;;;15.17;51.51;101434.82;1711369;83;21614;-49
2022/10/14 10:01:24;;;;;;;9.65;3.87;;;;;;;15.20;51.80;101433.25;1714329;83;21070;-48
2022/10/14 10:03:51;;;;;;;7.05;3.75;;;;;;;15.26;51.36;101432.72;1706358;82;21093;-48
2022/10/14 10:06:26;;;;;;;12.03;4.58;;;;;;;15.31;50.99;101430.52;1700330;83;21134;-48
2022/10/14 10:08:57;;;;;;;8.15;3.90;;;;;;;15.38;50.62;101435.69;1711190;83;21589;-48
2022/10/14 10:11:36;;;;;;;10.58;4.40;;;;;;;15.45;50.16;101440.00;1710869;83;21002;-48
2022/10/14 10:14:32;;;;;;;13.08;5.15;;;;;;;15.49;50.00;101436.59;1705845;83;21350;-48
2022/10/14 10:17:13;;;;;;;9.50;3.37;;;;;;;15.53;50.36;101431.38;1714398;83;21026;-49
2022/10/14 10:19:44;;;;;;;7.20;2.90;;;;;;;15.60;49.72;101433.86;1684680;83;21080;-48
2022/10/14 10:22:22;;;;;;;9.25;3.65;;;;;;;15.59;48.29;101429.05;1676536;83;21151;-48
2022/10/14 10:24:51;;;;;;;7.65;3.55;;;;;;;15.59;48.67;101428.22;1670625;83;21684;-52
2022/10/14 10:27:33;;;;;;;9.75;3.92;;;;;;;15.63;48.73;101434.09;1701258;82;21058;-49
2022/10/14 10:30:20;;;;;;;7.60;3.27;;;;;;;15.66;48.63;101430.69;1684027;83;21122;-48
2022/10/14 10:32:59;;;;;;;6.12;2.52;;;;;;;15.71;48.23;101429.81;1687279;84;21137;-49
2022/10/14 10:35:32;;;;;;;6.00;2.52;;;;;;;15.78;47.48;101432.81;1720001;83;21322;-49
2022/10/14 10:38:33;;;;;;;8.30;2.95;;;;;;;15.75;47.11;101426.41;1715379;82;21038;-49
2022/10/14 10:41:26;;;;;;;7.85;3.22;;;;;;;15.65;47.11;101423.73;1691123;84;21038;-49
2022/10/14 10:44:14;;;;;;;8.60;3.25;;;;;;;15.53;46.98;101432.70;1694877;82;21050;-49
2022/10/14 10:47:23;;;;;;;7.10;3.08;;;;;;;15.41;47.31;101424.80;1714366;82;21046;-48
2022/10/14 10:50:08;;;;;;;11.05;3.40;;;;;;;15.33;47.73;101420.65;1694266;83;21186;-49
2022/10/14 10:52:50;;;;;;;9.30;3.33;;;;;;;15.29;48.15;101422.36;1707218;83;21696;-49
2022/10/14 10:55:46;;;;;;;10.15;3.55;;;;;;;15.20;47.96;101418.67;1698389;83;21020;-49
2022/10/14 10:58:35;;;;;;;10.32;3.62;;;;;;;15.18;47.67;101418.80;1689752;83;21501;-49
2022/10/14 11:01:31;;;;;;;16.07;3.65;;;;;;;15.19;47.45;101420.45;1704482;83;21134;-48
2022/10/14 11:04:22;;;;;;;14.20;3.17;;;;;;;15.13;47.61;101412.17;1702971;83;21324;-49
2022/10/14 11:14:26;;;;;;;7.47;2.87;;;;;;;15.18;47.10;101405.53;1695624;83;21082;-48
2022/10/14 11:17:16;;;;;;;10.43;3.15;;;;;;;15.23;47.02;101400.69;1700583;83;21102;-48
2022/10/14 11:20:06;;;;;;;6.15;2.83;;;;;;;15.32;47.13;101397.74;1696985;83;21380;-49
2022/10/14 11:22:57;;;;;;;7.72;2.70;;;;;;;15.52;46.52;101398.72;1705551;83;21146;-48
2022/10/14 11:25:49;;;;;;;6.90;2.80;;;;;;;15.67;44.81;101393.92;1693318;84;21138;-48
2022/10/14 11:28:45;;;;;;;6.25;2.50;;;;;;;15.82;44.78;101393.12;1647322;84;21151;-48
2022/10/14 11:31:50;;;;;;;7.75;2.87;;;;;;;15.99;44.13;101391.66;1693049;84;21090;-49
2022/10/14 11:34:42;;;;;;;7.47;2.70;;;;;;;16.14;43.88;101390.31;1649551;84;21131;-50
2022/10/14 11:37:21;;;;;;;5.92;2.55;;;;;;;16.23;43.91;101389.16;1690784;84;21000;-47
2022/10/14 11:40:00;;;;;;;8.88;2.62;;;;;;;16.24;43.37;101389.48;1687989;84;21134;-48
2022/10/14 11:43:08;;;;;;;12.00;2.98;;;;;;;16.27;43.14;101382.58;1689509;84;21090;-48
2022/10/14 11:45:58;;;;;;;10.00;2.72;;;;;;;16.30;42.53;101379.16;1690320;84;21772;-49
2022/10/14 11:48:47;;;;;;;7.55;3.05;;;;;;;16.35;42.84;101378.27;1691207;84;21611;-49